createdAt,value
2018-02-04T00:01:09.939Z,49.00
2018-02-04T00:02:46.373Z,46.00
2018-02-04T00:04:23.476Z,44.50
2018-02-04T00:06:00.002Z,35.00
2018-02-04T00:07:36.703Z,49.25
2018-02-04T00:09:13.229Z,36.75
2018-02-04T00:10:51.118Z,45.50
2018-02-04T00:12:27.742Z,50.50
2018-02-04T00:14:04.284Z,27.00
2018-02-04T00:15:41.363Z,39.00
2018-02-04T00:17:18.534Z,47.50
2018-02-04T00:18:56.740Z,43.25
2018-02-04T00:20:33.761Z,50.00
2018-02-04T00:22:10.926Z,35.25
2018-02-04T00:23:47.542Z,27.75
2018-02-04T00:25:24.260Z,41.25
2018-02-04T00:27:00.775Z,39.75
2018-02-04T00:28:37.879Z,49.00
2018-02-04T00:30:15.583Z,38.75
2018-02-04T00:31:53.031Z,58.25
2018-02-04T00:33:30.255Z,46.25
2018-02-04T00:35:07.000Z,31.00
2018-02-04T00:36:43.469Z,33.25
2018-02-04T00:38:20.043Z,41.50
2018-02-04T00:39:57.280Z,30.00
2018-02-04T00:41:34.185Z,29.50
2018-02-04T00:43:10.763Z,23.75
2018-02-04T00:44:47.131Z,27.25
2018-02-04T00:46:23.694Z,44.75
2018-02-04T00:48:00.714Z,39.00
2018-02-04T00:49:37.995Z,39.50
2018-02-04T00:51:14.616Z,38.25
2018-02-04T00:52:51.114Z,46.00
2018-02-04T00:54:27.987Z,32.25
2018-02-04T00:56:28.388Z,31.25
2018-02-04T00:58:04.931Z,32.00
2018-02-04T00:59:43.114Z,32.25
2018-02-04T01:01:19.664Z,38.25
2018-02-04T01:02:56.930Z,39.50
2018-02-04T01:04:33.661Z,22.75
2018-02-04T01:06:11.949Z,29.75
2018-02-04T01:07:49.962Z,32.75
2018-02-04T01:09:26.399Z,38.75
2018-02-04T01:11:03.899Z,27.25
2018-02-04T01:12:41.061Z,29.25
2018-02-04T01:14:17.428Z,34.25
2018-02-04T01:15:53.942Z,28.75
2018-02-04T01:17:30.316Z,34.50
2018-02-04T01:19:07.211Z,25.50
2018-02-04T01:20:43.731Z,46.50
2018-02-04T01:22:20.201Z,43.75
2018-02-04T01:23:56.727Z,27.00
2018-02-04T01:25:33.687Z,33.50
2018-02-04T01:27:10.854Z,31.75
2018-02-04T01:28:47.237Z,26.25
2018-02-04T01:30:23.745Z,27.75
2018-02-04T01:32:00.476Z,32.50
2018-02-04T01:33:36.880Z,33.50
2018-02-04T01:35:13.317Z,24.00
2018-02-04T01:36:50.504Z,37.25
2018-02-04T01:38:27.957Z,28.75
2018-02-04T01:40:05.031Z,30.00
2018-02-04T01:41:41.554Z,37.50
2018-02-04T01:43:17.985Z,25.50
2018-02-04T01:44:55.423Z,28.00
2018-02-04T01:46:31.804Z,28.75
2018-02-04T01:48:10.241Z,27.50
2018-02-04T01:49:49.769Z,35.00
2018-02-04T01:51:26.867Z,25.25
2018-02-04T01:53:04.032Z,25.50
2018-02-04T01:54:41.335Z,27.50
2018-02-04T01:56:20.231Z,35.00
2018-02-04T01:57:57.449Z,31.50
2018-02-04T01:59:33.921Z,31.00
2018-02-04T02:01:11.278Z,36.50
2018-02-04T02:02:47.702Z,40.00
2018-02-04T02:04:24.612Z,39.75
2018-02-04T02:06:01.065Z,34.00
2018-02-04T02:07:37.460Z,41.25
2018-02-04T02:09:14.025Z,35.75
2018-02-04T02:10:50.834Z,40.25
2018-02-04T02:12:27.290Z,36.75
2018-02-04T02:14:03.904Z,40.50
2018-02-04T02:15:42.055Z,31.50
2018-02-04T02:17:19.014Z,25.50
2018-02-04T02:18:55.476Z,41.25
2018-02-04T02:20:32.041Z,36.00
2018-02-04T02:22:08.682Z,38.50
2018-02-04T02:23:45.463Z,38.25
2018-02-04T02:25:21.895Z,37.75
2018-02-04T02:26:58.453Z,40.50
2018-02-04T02:28:35.030Z,43.75
2018-02-04T02:30:13.368Z,38.00
2018-02-04T02:31:49.868Z,44.00
2018-02-04T02:33:26.224Z,45.75
2018-02-04T02:35:03.511Z,36.50
2018-02-04T02:36:40.430Z,37.25
2018-02-04T02:38:16.809Z,34.25
2018-02-04T02:39:54.335Z,38.00
2018-02-04T02:41:30.876Z,48.25
2018-02-04T02:43:07.766Z,36.25
2018-02-04T02:44:44.196Z,41.50
2018-02-04T02:46:21.397Z,34.00
2018-02-04T02:47:57.962Z,40.75
2018-02-04T02:49:34.924Z,38.00
2018-02-04T02:51:12.116Z,38.25
2018-02-04T02:52:48.568Z,38.50
2018-02-04T02:54:25.817Z,37.75
2018-02-04T02:56:02.779Z,39.25
2018-02-04T02:57:39.215Z,42.00
2018-02-04T02:59:15.907Z,37.25
2018-02-04T03:00:52.457Z,40.00
2018-02-04T03:02:30.476Z,44.75
2018-02-04T03:04:06.910Z,30.50
2018-02-04T03:05:44.322Z,35.75
2018-02-04T03:07:27.125Z,42.25
2018-02-04T03:09:05.533Z,41.50
2018-02-04T03:10:42.099Z,42.25
2018-02-04T03:12:18.626Z,47.75
2018-02-04T03:13:55.064Z,47.25
2018-02-04T03:15:31.888Z,33.25
2018-02-04T03:17:08.405Z,44.50
2018-02-04T03:18:44.848Z,40.75
2018-02-04T03:20:21.337Z,36.00
2018-02-04T03:21:58.154Z,31.25
2018-02-04T03:23:34.529Z,31.50
2018-02-04T03:25:11.223Z,41.25
2018-02-04T03:26:47.594Z,42.25
2018-02-04T03:28:24.628Z,22.00
2018-02-04T03:30:03.551Z,26.50
2018-02-04T03:31:40.170Z,26.50
2018-02-04T03:33:16.654Z,29.75
2018-02-04T03:34:53.480Z,44.00
2018-02-04T03:36:29.960Z,36.50
2018-02-04T03:38:06.452Z,31.50
2018-02-04T03:39:43.676Z,20.25
2018-02-04T03:41:20.410Z,27.50
2018-02-04T03:42:56.866Z,31.50
2018-02-04T03:44:33.332Z,31.00
2018-02-04T03:46:09.963Z,32.00
2018-02-04T03:47:47.001Z,33.75
2018-02-04T03:49:24.643Z,18.00
2018-02-04T03:51:03.157Z,33.75
2018-02-04T03:52:40.904Z,26.25
2018-02-04T03:54:17.456Z,22.50
2018-02-04T03:55:53.885Z,27.50
2018-02-04T03:57:30.321Z,28.75
2018-02-04T03:59:06.813Z,28.75
2018-02-04T04:00:43.208Z,28.00
2018-02-04T04:02:20.336Z,26.50
2018-02-04T04:03:56.827Z,26.50
2018-02-04T04:05:33.684Z,27.75
2018-02-04T04:07:10.085Z,23.00
2018-02-04T04:08:46.528Z,23.00
2018-02-04T04:10:23.733Z,35.50
2018-02-04T04:12:00.556Z,24.25
2018-02-04T04:13:36.948Z,32.00
2018-02-04T04:15:14.914Z,28.50
2018-02-04T04:16:51.344Z,20.00
2018-02-04T04:18:28.078Z,31.50
2018-02-04T04:20:04.460Z,20.25
2018-02-04T04:21:40.997Z,19.00
2018-02-04T04:23:17.408Z,31.75
2018-02-04T04:24:54.102Z,23.75
2018-02-04T04:26:30.481Z,20.50
2018-02-04T04:28:07.962Z,30.50
2018-02-04T04:29:44.286Z,26.00
2018-02-04T04:31:21.864Z,28.25
2018-02-04T04:32:58.202Z,26.25
2018-02-04T04:34:34.492Z,19.25
2018-02-04T04:36:10.900Z,18.25
2018-02-04T04:37:47.833Z,32.00
2018-02-04T04:39:25.100Z,18.25
2018-02-04T04:41:03.202Z,24.75
2018-02-04T04:42:39.654Z,19.00
2018-02-04T04:44:16.282Z,16.75
2018-02-04T04:45:53.402Z,19.50
2018-02-04T04:47:29.858Z,18.25
2018-02-04T04:49:06.126Z,21.00
2018-02-04T04:50:42.941Z,19.75
2018-02-04T04:52:19.403Z,26.25
2018-02-04T04:53:55.882Z,18.50
2018-02-04T04:55:32.368Z,19.75
2018-02-04T04:57:09.462Z,17.50
2018-02-04T04:58:45.808Z,15.00
2018-02-04T05:00:23.065Z,18.25
2018-02-04T05:01:59.397Z,20.00
2018-02-04T05:03:36.103Z,15.50
2018-02-04T05:05:12.450Z,16.75
2018-02-04T05:06:49.113Z,18.25
2018-02-04T05:08:26.664Z,14.75
2018-02-04T05:10:04.592Z,19.25
2018-02-04T05:11:40.931Z,15.75
2018-02-04T05:13:18.820Z,21.25
2018-02-04T05:14:58.159Z,18.50
2018-02-04T05:16:35.246Z,13.00
2018-02-04T05:18:12.364Z,23.25
2018-02-04T05:19:49.337Z,18.00
2018-02-04T05:21:25.748Z,14.00
2018-02-04T05:23:03.034Z,16.50
2018-02-04T05:24:39.429Z,16.75
2018-02-04T05:26:16.618Z,11.50
2018-02-04T05:27:53.040Z,8.00
2018-02-04T05:29:30.057Z,13.00
2018-02-04T05:31:07.078Z,10.25
2018-02-04T05:32:43.407Z,12.75
2018-02-04T05:34:19.682Z,13.00
2018-02-04T05:35:56.509Z,8.00
2018-02-04T05:37:33.606Z,11.00
2018-02-04T05:39:09.880Z,5.75
2018-02-04T05:40:46.156Z,11.00
2018-02-04T05:42:22.878Z,5.25
2018-02-04T05:43:59.959Z,8.50
2018-02-04T05:45:37.024Z,9.00
2018-02-04T05:47:13.524Z,11.75
2018-02-04T05:48:50.307Z,7.50
2018-02-04T05:50:28.652Z,9.50
2018-02-04T05:52:05.025Z,8.50
2018-02-04T05:53:41.316Z,12.00
2018-02-04T05:55:17.706Z,9.00
2018-02-04T05:56:54.098Z,8.00
2018-02-04T05:58:30.449Z,8.00
2018-02-04T06:00:08.510Z,11.00
2018-02-04T06:01:45.424Z,9.00
2018-02-04T06:03:21.796Z,5.50
2018-02-04T06:04:58.095Z,7.00
2018-02-04T06:06:34.486Z,10.00
2018-02-04T06:08:11.947Z,8.00
2018-02-04T06:09:48.259Z,7.50
2018-02-04T06:11:24.664Z,10.00
2018-02-04T06:13:01.095Z,7.25
2018-02-04T06:14:37.937Z,10.75
2018-02-04T06:16:15.188Z,10.50
2018-02-04T06:17:52.568Z,12.75
2018-02-04T06:19:28.915Z,15.50
2018-02-04T06:21:06.677Z,11.00
2018-02-04T06:22:43.094Z,11.00
2018-02-04T06:24:19.487Z,14.00
2018-02-04T06:25:55.946Z,12.00
2018-02-04T06:27:32.807Z,9.25
2018-02-04T06:29:09.253Z,10.75
2018-02-04T06:30:45.679Z,6.50
2018-02-04T06:32:22.201Z,12.50
2018-02-04T06:33:58.924Z,10.50
2018-02-04T06:35:36.003Z,8.00
2018-02-04T06:37:12.301Z,10.50
2018-02-04T06:40:31.564Z,12.25
2018-02-04T06:42:08.767Z,9.00
2018-02-04T06:43:46.599Z,14.25
2018-02-04T06:45:26.334Z,11.00
2018-02-04T06:47:04.624Z,9.00
2018-02-04T06:48:43.228Z,11.25
2018-02-04T06:50:20.671Z,9.00
2018-02-04T06:51:57.884Z,16.25
2018-02-04T06:53:35.122Z,9.00
2018-02-04T06:55:12.296Z,13.25
2018-02-04T06:56:48.644Z,11.00
2018-02-04T06:58:24.996Z,14.25
2018-02-04T07:00:01.857Z,13.50
2018-02-04T07:01:38.305Z,11.00
2018-02-04T07:03:14.699Z,11.00
2018-02-04T07:04:51.108Z,13.75
2018-02-04T07:06:27.731Z,16.00
2018-02-04T07:08:04.844Z,13.00
2018-02-04T07:09:42.167Z,13.50
2018-02-04T07:11:18.489Z,11.25
2018-02-04T07:12:55.152Z,14.50
2018-02-04T07:14:31.477Z,9.75
2018-02-04T07:16:08.489Z,15.00
2018-02-04T07:17:46.103Z,20.50
2018-02-04T07:19:22.464Z,13.25
2018-02-04T07:20:58.788Z,12.50
2018-02-04T07:22:35.271Z,17.00
2018-02-04T07:24:11.629Z,10.00
2018-02-04T07:25:48.278Z,16.00
2018-02-04T07:27:25.300Z,13.50
2018-02-04T07:29:01.939Z,8.50
2018-02-04T07:30:39.104Z,13.25
2018-02-04T07:32:16.474Z,9.00
2018-02-04T07:33:52.771Z,15.25
2018-02-04T07:35:28.997Z,12.25
2018-02-04T07:37:05.230Z,10.75
2018-02-04T07:38:41.817Z,11.00
2018-02-04T07:40:18.990Z,12.50
2018-02-04T07:41:56.483Z,18.00
2018-02-04T07:43:32.759Z,12.00
2018-02-04T07:45:10.152Z,16.00
2018-02-04T07:46:47.724Z,18.50
2018-02-04T07:48:24.793Z,21.50
2018-02-04T07:50:01.955Z,14.25
2018-02-04T07:51:38.735Z,11.50
2018-02-04T07:53:14.970Z,13.75
2018-02-04T07:54:52.130Z,13.50
2018-02-04T07:56:28.403Z,16.00
2018-02-04T07:58:05.984Z,21.50
2018-02-04T07:59:42.315Z,18.50
2018-02-04T08:01:18.678Z,16.25
2018-02-04T08:02:55.785Z,12.00
2018-02-04T08:04:32.689Z,16.25
2018-02-04T08:06:09.116Z,17.00
2018-02-04T08:07:45.523Z,16.50
2018-02-04T08:09:21.890Z,14.25
2018-02-04T08:10:58.665Z,11.25
2018-02-04T08:12:34.991Z,11.25
2018-02-04T08:14:11.402Z,10.00
2018-02-04T08:15:49.026Z,12.25
2018-02-04T08:17:25.737Z,10.75
2018-02-04T08:19:02.032Z,13.50
2018-02-04T08:20:39.140Z,15.00
2018-02-04T08:22:15.444Z,12.50
2018-02-04T08:23:52.825Z,13.50
2018-02-04T08:25:29.139Z,15.00
2018-02-04T08:27:06.248Z,12.00
2018-02-04T08:28:42.514Z,15.00
2018-02-04T08:30:19.340Z,19.75
2018-02-04T08:31:55.760Z,14.25
2018-02-04T08:33:32.079Z,15.00
2018-02-04T08:35:08.408Z,18.25
2018-02-04T08:36:45.818Z,22.50
2018-02-04T08:38:22.212Z,11.75
2018-02-04T08:39:58.560Z,16.50
2018-02-04T08:41:34.883Z,17.50
2018-02-04T08:43:12.346Z,16.50
2018-02-04T08:44:48.687Z,17.25
2018-02-04T08:46:24.994Z,19.50
2018-02-04T08:48:02.353Z,18.50
2018-02-04T08:49:38.966Z,17.75
2018-02-04T08:51:15.248Z,20.00
2018-02-04T08:52:51.617Z,17.75
2018-02-04T08:54:27.966Z,22.75
2018-02-04T08:56:05.095Z,19.00
2018-02-04T08:57:41.558Z,15.75
2018-02-04T08:59:18.051Z,19.25
2018-02-04T09:00:54.419Z,22.75
2018-02-04T09:02:31.155Z,18.25
2018-02-04T09:04:08.485Z,20.00
2018-02-04T09:05:45.748Z,20.25
2018-02-04T09:07:22.185Z,18.25
2018-02-04T09:08:58.931Z,21.75
2018-02-04T09:10:35.209Z,26.00
2018-02-04T09:12:11.542Z,24.50
2018-02-04T09:13:48.130Z,18.00
2018-02-04T09:15:25.864Z,22.00
2018-02-04T09:17:03.253Z,18.50
2018-02-04T09:18:39.627Z,17.75
2018-02-04T09:20:15.973Z,18.50
2018-02-04T09:21:53.492Z,24.00
2018-02-04T09:23:29.995Z,16.25
2018-02-04T09:25:06.969Z,15.75
2018-02-04T09:26:43.334Z,17.75
2018-02-04T09:28:20.071Z,16.00
2018-02-04T09:29:56.469Z,18.25
2018-02-04T09:31:32.885Z,16.50
2018-02-04T09:33:10.088Z,18.50
2018-02-04T09:34:46.874Z,15.75
2018-02-04T09:36:23.176Z,18.75
2018-02-04T09:37:59.429Z,16.75
2018-02-04T09:39:36.398Z,18.50
2018-02-04T09:41:12.972Z,23.00
2018-02-04T09:42:49.514Z,19.50
2018-02-04T09:44:25.829Z,16.25
2018-02-04T09:46:02.243Z,18.75
2018-02-04T09:47:39.806Z,25.00
2018-02-04T09:49:16.197Z,17.25
2018-02-04T09:50:52.778Z,19.50
2018-02-04T09:52:29.098Z,20.00
2018-02-04T09:54:05.728Z,20.00
2018-02-04T09:55:42.878Z,26.00
2018-02-04T09:57:19.286Z,22.25
2018-02-04T09:58:57.392Z,28.50
2018-02-04T10:00:34.528Z,29.00
2018-02-04T10:02:10.802Z,27.75
2018-02-04T10:03:48.719Z,32.50
2018-02-04T10:05:25.899Z,21.50
2018-02-04T10:07:03.806Z,23.25
2018-02-04T10:08:40.864Z,27.00
2018-02-04T10:10:17.252Z,26.50
2018-02-04T10:11:55.402Z,33.75
2018-02-04T10:13:32.030Z,26.25
2018-02-04T10:15:08.455Z,30.75
2018-02-04T10:16:44.939Z,17.25
2018-02-04T10:18:23.076Z,23.50
2018-02-04T10:19:59.787Z,21.25
2018-02-04T10:21:36.151Z,21.50
2018-02-04T10:23:13.231Z,24.50
2018-02-04T10:24:49.668Z,23.25
2018-02-04T10:26:26.357Z,33.00
2018-02-04T10:28:03.065Z,24.25
2018-02-04T10:29:39.486Z,31.25
2018-02-04T10:31:15.832Z,35.75
2018-02-04T10:32:52.762Z,27.75
2018-02-04T10:34:30.014Z,32.00
2018-02-04T10:36:06.400Z,26.00
2018-02-04T10:37:42.898Z,27.00
2018-02-04T10:39:20.551Z,32.25
2018-02-04T10:40:57.740Z,30.75
2018-02-04T10:42:35.178Z,25.75
2018-02-04T10:44:12.235Z,28.00
2018-02-04T10:45:49.004Z,29.75
2018-02-04T10:47:25.388Z,30.50
2018-02-04T10:49:02.115Z,26.75
2018-02-04T10:50:43.268Z,30.50
2018-02-04T10:52:20.186Z,33.00
2018-02-04T10:53:56.758Z,21.00
2018-02-04T10:55:33.162Z,28.75
2018-02-04T10:57:09.605Z,21.50
2018-02-04T10:58:46.398Z,26.75
2018-02-04T11:00:22.768Z,33.50
2018-02-04T11:02:01.684Z,34.25
2018-02-04T11:03:38.040Z,33.50
2018-02-04T11:05:14.718Z,30.75
2018-02-04T11:06:51.150Z,32.50
2018-02-04T11:08:27.564Z,38.75
2018-02-04T11:10:04.781Z,28.25
2018-02-04T11:11:41.955Z,36.50
2018-02-04T11:13:18.529Z,31.50
2018-02-04T11:14:55.940Z,34.00
2018-02-04T11:16:33.216Z,30.75
2018-02-04T11:18:09.958Z,27.25
2018-02-04T11:19:46.316Z,24.50
2018-02-04T11:21:22.752Z,25.00
2018-02-04T11:23:00.156Z,28.25
2018-02-04T11:24:37.735Z,33.00
2018-02-04T11:27:44.057Z,31.00
2018-02-04T11:29:21.855Z,29.00
2018-02-04T11:30:59.530Z,25.50
2018-02-04T11:32:36.445Z,25.25
2018-02-04T11:34:12.964Z,19.50
2018-02-04T11:35:49.355Z,29.25
2018-02-04T11:37:26.122Z,20.75
2018-02-04T11:39:02.973Z,23.50
2018-02-04T11:40:39.629Z,28.25
2018-02-04T11:42:18.091Z,19.00
2018-02-04T11:43:54.767Z,15.25
2018-02-04T11:45:31.161Z,26.25
2018-02-04T11:47:07.515Z,19.75
2018-02-04T11:48:44.178Z,24.00
2018-02-04T11:50:21.899Z,20.25
2018-02-04T11:51:59.182Z,28.75
2018-02-04T11:53:35.747Z,23.50
2018-02-04T11:55:12.162Z,25.75
2018-02-04T11:56:50.779Z,15.75
2018-02-04T11:58:28.083Z,19.00
2018-02-04T12:00:07.040Z,21.00
2018-02-04T12:01:43.778Z,15.50
2018-02-04T12:03:21.465Z,19.00
2018-02-04T12:04:57.890Z,16.25
2018-02-04T12:06:34.288Z,20.00
2018-02-04T12:08:10.724Z,16.50
2018-02-04T12:09:57.760Z,17.00
2018-02-04T12:11:34.040Z,17.50
2018-02-04T12:13:10.417Z,23.75
2018-02-04T12:14:47.680Z,23.50
2018-02-04T12:16:24.702Z,25.00
2018-02-04T12:18:02.155Z,24.00
2018-02-04T12:19:38.795Z,26.25
2018-02-04T12:21:15.226Z,22.25
2018-02-04T12:22:53.285Z,33.00
2018-02-04T12:24:30.593Z,26.25
2018-02-04T12:26:07.250Z,24.75
2018-02-04T12:27:43.686Z,28.75
2018-02-04T12:29:20.535Z,30.00
2018-02-04T12:30:57.203Z,27.00
2018-02-04T12:32:33.690Z,24.00
2018-02-04T12:34:10.164Z,20.75
2018-02-04T12:35:46.860Z,21.00
2018-02-04T12:37:24.400Z,23.25
2018-02-04T12:39:01.045Z,25.50
2018-02-04T12:40:38.616Z,22.75
2018-02-04T12:42:15.803Z,25.00
2018-02-04T12:43:52.204Z,20.75
2018-02-04T12:45:29.601Z,16.00
2018-02-04T12:47:06.266Z,22.50
2018-02-04T12:48:43.814Z,21.50
2018-02-04T12:50:20.206Z,23.25
2018-02-04T12:51:56.657Z,24.00
2018-02-04T12:53:33.421Z,18.75
2018-02-04T12:55:10.227Z,21.50
2018-02-04T12:56:46.580Z,23.75
2018-02-04T12:58:23.087Z,27.50
2018-02-04T13:00:00.339Z,20.50
2018-02-04T13:01:37.584Z,25.00
2018-02-04T13:03:14.054Z,21.00
2018-02-04T13:04:50.488Z,23.25
2018-02-04T13:06:27.755Z,20.25
2018-02-04T13:08:05.903Z,18.50
2018-02-04T13:09:42.315Z,24.50
2018-02-04T13:11:19.957Z,27.75
2018-02-04T13:12:56.356Z,18.00
2018-02-04T13:14:33.114Z,14.50
2018-02-04T13:16:09.461Z,16.00
2018-02-04T13:17:45.881Z,21.00
2018-02-04T13:19:22.536Z,17.00
2018-02-04T13:21:00.085Z,34.25
2018-02-04T13:22:36.524Z,21.00
2018-02-04T13:24:13.693Z,10.25
2018-02-04T13:25:50.874Z,14.25
2018-02-04T13:27:27.213Z,8.00
2018-02-04T13:29:03.699Z,17.50
2018-02-04T13:30:41.018Z,13.75
2018-02-04T13:32:18.165Z,20.75
2018-02-04T13:33:55.143Z,17.75
2018-02-04T13:35:31.556Z,23.75
2018-02-04T13:37:09.091Z,13.50
2018-02-04T13:38:45.494Z,15.00
2018-02-04T13:40:22.279Z,14.75
2018-02-04T13:41:58.672Z,17.50
2018-02-04T13:43:35.074Z,22.50
2018-02-04T13:45:11.535Z,15.50
2018-02-04T13:46:48.481Z,14.50
2018-02-04T13:48:25.624Z,19.25
2018-02-04T13:50:03.506Z,19.25
2018-02-04T13:51:41.078Z,17.50
2018-02-04T13:53:18.698Z,16.75
2018-02-04T13:54:55.125Z,17.00
2018-02-04T13:56:32.254Z,20.50
2018-02-04T13:58:09.036Z,18.50
2018-02-04T13:59:45.867Z,21.75
2018-02-04T14:01:22.451Z,22.50
2018-02-04T14:02:59.042Z,18.25
2018-02-04T14:04:35.684Z,23.75
2018-02-04T14:06:13.410Z,22.50
2018-02-04T14:07:49.885Z,20.50
2018-02-04T14:09:26.419Z,22.25
2018-02-04T14:11:03.822Z,18.50
2018-02-04T14:12:40.753Z,27.75
2018-02-04T14:14:18.021Z,16.75
2018-02-04T14:15:54.644Z,27.00
2018-02-04T14:17:31.061Z,24.50
2018-02-04T14:19:08.986Z,15.25
2018-02-04T14:20:45.477Z,19.50
2018-02-04T14:22:21.897Z,17.00
2018-02-04T14:23:58.213Z,21.00
2018-02-04T14:25:34.994Z,18.00
2018-02-04T14:27:11.608Z,26.50
2018-02-04T14:28:48.438Z,13.50
2018-02-04T14:30:28.184Z,16.00
2018-02-04T14:32:06.828Z,25.25
2018-02-04T14:33:44.218Z,24.50
2018-02-04T14:35:23.393Z,29.50
2018-02-04T14:36:59.899Z,23.00
2018-02-04T14:38:36.695Z,22.50
2018-02-04T14:40:13.960Z,23.50
2018-02-04T14:41:51.320Z,17.00
2018-02-04T14:43:27.877Z,17.00
2018-02-04T14:45:05.292Z,17.50
2018-02-04T14:46:43.153Z,16.75
2018-02-04T14:48:21.622Z,17.75
2018-02-04T14:49:58.710Z,16.00
2018-02-04T14:51:37.351Z,20.50
2018-02-04T14:53:13.853Z,18.75
2018-02-04T14:54:50.180Z,13.75
2018-02-04T14:56:28.609Z,14.00
2018-02-04T14:58:05.330Z,29.75
2018-02-04T14:59:42.621Z,14.50
2018-02-04T15:01:19.195Z,20.25
2018-02-04T15:02:55.779Z,18.00
2018-02-04T15:04:32.996Z,7.50
2018-02-04T15:06:09.729Z,20.00
2018-02-04T15:07:46.095Z,16.25
2018-02-04T15:09:22.406Z,15.25
2018-02-04T15:11:00.233Z,17.00
2018-02-04T15:12:36.579Z,16.00
2018-02-04T15:14:12.976Z,15.00
2018-02-04T15:15:49.903Z,16.75
2018-02-04T15:17:26.636Z,13.50
2018-02-04T15:19:03.056Z,17.00
2018-02-04T15:20:39.430Z,15.00
2018-02-04T15:22:15.789Z,16.50
2018-02-04T15:23:52.524Z,19.25
2018-02-04T15:25:29.706Z,15.50
2018-02-04T15:27:06.205Z,15.25
2018-02-04T15:28:42.628Z,20.00
2018-02-04T15:30:21.002Z,18.50
2018-02-04T15:31:57.750Z,15.25
2018-02-04T15:33:34.073Z,11.25
2018-02-04T15:35:11.241Z,13.75
2018-02-04T15:36:48.010Z,16.25
2018-02-04T15:38:25.120Z,23.75
2018-02-04T15:40:01.570Z,17.00
2018-02-04T15:41:38.812Z,19.75
2018-02-04T15:43:15.662Z,18.75
2018-02-04T15:44:52.019Z,17.50
2018-02-04T15:46:28.623Z,12.00
2018-02-04T15:48:05.095Z,18.25
2018-02-04T15:49:41.896Z,14.50
2018-02-04T15:51:19.837Z,12.25
2018-02-04T15:52:56.280Z,15.00
2018-02-04T15:54:32.739Z,16.50
2018-02-04T15:56:10.621Z,16.75
2018-02-04T15:57:47.677Z,14.00
2018-02-04T15:59:24.897Z,18.25
2018-02-04T16:02:33.911Z,18.00
2018-02-04T16:04:10.306Z,14.75
2018-02-04T16:05:47.468Z,16.00
2018-02-04T16:07:24.021Z,17.00
2018-02-04T16:09:02.186Z,23.50
2018-02-04T16:10:38.645Z,11.25
2018-02-04T16:12:15.084Z,10.00
2018-02-04T16:13:53.178Z,23.75
2018-02-04T16:15:30.523Z,14.75
2018-02-04T16:17:08.185Z,25.25
2018-02-04T16:18:44.610Z,18.75
2018-02-04T16:20:21.155Z,23.75
2018-02-04T16:21:58.701Z,15.25
2018-02-04T16:23:36.052Z,23.25
2018-02-04T16:25:13.409Z,13.00
2018-02-04T16:26:51.353Z,13.50
2018-02-04T16:28:29.895Z,20.00
2018-02-04T16:30:07.262Z,18.00
2018-02-04T16:31:44.820Z,26.00
2018-02-04T16:33:21.272Z,21.00
2018-02-04T16:34:58.759Z,24.25
2018-02-04T16:36:35.203Z,13.50
2018-02-04T16:38:13.340Z,22.00
2018-02-04T16:39:49.760Z,26.00
2018-02-04T16:41:27.030Z,19.50
2018-02-04T16:43:04.426Z,22.00
2018-02-04T16:44:41.657Z,17.00
2018-02-04T16:46:18.158Z,18.25
2018-02-04T16:47:55.146Z,22.75
2018-02-04T16:49:32.365Z,21.50
2018-02-04T16:51:08.932Z,19.25
2018-02-04T16:52:46.083Z,17.75
2018-02-04T16:54:24.650Z,22.75
2018-02-04T16:56:02.818Z,18.25
2018-02-04T16:57:39.390Z,21.25
2018-02-04T16:59:15.778Z,20.25
2018-02-04T17:00:52.514Z,14.75
2018-02-04T17:02:28.888Z,23.50
2018-02-04T17:04:07.734Z,22.25
2018-02-04T17:05:44.119Z,24.25
2018-02-04T17:07:23.370Z,28.25
2018-02-04T17:09:00.733Z,17.00
2018-02-04T17:10:37.162Z,17.75
2018-02-04T17:12:13.549Z,18.25
2018-02-04T17:13:50.048Z,25.50
2018-02-04T17:15:28.938Z,22.75
2018-02-04T17:17:05.733Z,19.50
2018-02-04T17:18:42.494Z,23.75
2018-02-04T17:20:18.988Z,24.00
2018-02-04T17:21:55.452Z,22.50
2018-02-04T17:23:31.957Z,24.00
2018-02-04T17:25:09.488Z,23.25
2018-02-04T17:26:45.849Z,29.75
2018-02-04T17:28:22.398Z,19.50
2018-02-04T17:29:59.938Z,20.25
2018-02-04T17:31:37.881Z,19.75
2018-02-04T17:33:16.622Z,25.25
2018-02-04T17:34:53.619Z,21.25
2018-02-04T17:36:30.027Z,20.75
2018-02-04T17:38:06.776Z,26.75
2018-02-04T17:39:44.013Z,24.50
2018-02-04T17:41:20.641Z,21.00
2018-02-04T17:42:57.715Z,22.50
2018-02-04T17:44:36.162Z,33.25
2018-02-04T17:46:13.659Z,20.25
2018-02-04T17:47:50.112Z,17.25
2018-02-04T17:49:26.780Z,20.00
2018-02-04T17:51:04.585Z,20.75
2018-02-04T17:52:41.219Z,28.25
2018-02-04T17:54:17.915Z,23.00
2018-02-04T17:55:55.525Z,28.75
2018-02-04T17:57:33.312Z,19.75
2018-02-04T17:59:10.815Z,23.25
2018-02-04T18:00:48.255Z,29.50
2018-02-04T18:02:25.128Z,19.75
2018-02-04T18:04:02.860Z,32.75
2018-02-04T18:05:40.072Z,25.25
2018-02-04T18:07:16.589Z,32.50
2018-02-04T18:08:53.087Z,24.50
2018-02-04T18:10:29.449Z,25.00
2018-02-04T18:12:06.576Z,22.75
2018-02-04T18:13:43.938Z,19.50
2018-02-04T18:15:21.648Z,22.25
2018-02-04T18:17:00.663Z,26.75
2018-02-04T18:18:37.056Z,21.00
2018-02-04T18:20:14.982Z,30.25
2018-02-04T18:21:53.086Z,32.25
2018-02-04T18:23:30.497Z,23.50
2018-02-04T18:25:09.537Z,38.25
2018-02-04T18:26:46.108Z,25.75
2018-02-04T18:28:25.593Z,24.25
2018-02-04T18:30:05.482Z,26.00
2018-02-04T18:31:55.790Z,24.50
2018-02-04T18:33:40.227Z,22.00
2018-02-04T18:35:17.474Z,20.75
2018-02-04T18:36:54.231Z,35.75
2018-02-04T18:38:31.665Z,24.50
2018-02-04T18:40:09.875Z,24.00
2018-02-04T18:41:47.096Z,31.50
2018-02-04T18:43:23.571Z,34.75
2018-02-04T18:45:00.124Z,34.25
2018-02-04T18:46:36.947Z,26.50
2018-02-04T18:48:24.610Z,25.00
2018-02-04T18:50:01.997Z,26.75
2018-02-04T18:51:38.659Z,29.75
2018-02-04T18:53:15.140Z,18.50
2018-02-04T18:54:51.623Z,25.00
2018-02-04T18:56:28.023Z,31.25
2018-02-04T18:58:04.770Z,21.00
2018-02-04T18:59:41.283Z,28.00
2018-02-04T19:01:18.887Z,19.75
2018-02-04T19:02:55.237Z,21.00
2018-02-04T19:04:35.186Z,27.75
2018-02-04T19:06:12.988Z,24.75
2018-02-04T19:07:49.495Z,26.50
2018-02-04T19:09:27.340Z,30.25
2018-02-04T19:11:05.585Z,21.75
2018-02-04T19:12:42.820Z,15.50
2018-02-04T19:14:20.284Z,16.50
2018-02-04T19:15:57.971Z,18.50
2018-02-04T19:17:34.409Z,25.25
2018-02-04T19:19:11.146Z,17.00
2018-02-04T19:20:47.587Z,36.00
2018-02-04T19:22:25.887Z,32.25
2018-02-04T19:24:03.869Z,35.50
2018-02-04T19:25:41.359Z,23.75
2018-02-04T19:27:17.858Z,21.50
2018-02-04T19:28:54.610Z,26.25
2018-02-04T19:30:31.358Z,27.75
2018-02-04T19:32:08.076Z,24.25
2018-02-04T19:33:44.759Z,22.25
2018-02-04T19:35:22.574Z,32.25
2018-02-04T19:36:59.214Z,29.75
2018-02-04T19:38:36.826Z,34.00
2018-02-04T19:40:13.897Z,38.00
2018-02-04T19:41:52.017Z,30.50
2018-02-04T19:43:28.567Z,30.00
2018-02-04T19:45:05.097Z,32.75
2018-02-04T19:46:41.689Z,35.25
2018-02-04T19:48:18.409Z,28.50
2018-02-04T19:49:55.261Z,32.75
2018-02-04T19:51:32.556Z,32.50
2018-02-04T19:53:09.631Z,36.50
2018-02-04T19:54:46.551Z,21.75
2018-02-04T19:56:23.241Z,32.50
2018-02-04T19:58:01.626Z,29.50
2018-02-04T19:59:38.299Z,31.00
2018-02-04T20:01:15.403Z,41.75
2018-02-04T20:02:52.140Z,38.00
2018-02-04T20:04:28.938Z,30.25
2018-02-04T20:06:06.180Z,30.00
2018-02-04T20:07:43.136Z,42.00
2018-02-04T20:09:19.761Z,47.50
2018-02-04T20:10:56.165Z,46.75
2018-02-04T20:12:32.586Z,46.00
2018-02-04T20:14:18.230Z,31.00
2018-02-04T20:15:56.613Z,36.50
2018-02-04T20:29:31.815Z,37.00
2018-02-04T20:31:14.113Z,45.00
2018-02-04T20:33:24.519Z,43.25
2018-02-04T20:35:01.943Z,42.25
2018-02-04T20:36:54.830Z,42.25
2018-02-04T20:38:33.032Z,40.25
2018-02-04T20:40:10.176Z,35.75
2018-02-04T20:41:46.884Z,32.25
2018-02-04T20:43:24.220Z,40.25
2018-02-04T20:45:01.600Z,35.25
2018-02-04T20:46:39.309Z,50.75
2018-02-04T20:48:15.929Z,42.25
2018-02-04T20:49:52.700Z,37.25
2018-02-04T20:51:29.138Z,31.75
2018-02-04T20:53:06.206Z,33.75
2018-02-04T20:54:42.863Z,37.25
2018-02-04T20:56:20.393Z,43.25
2018-02-04T20:57:57.133Z,34.75
2018-02-04T20:59:35.058Z,31.50
2018-02-04T21:01:11.816Z,53.00
2018-02-04T21:02:48.686Z,41.00
2018-02-04T21:04:25.403Z,41.75
2018-02-04T21:06:04.062Z,45.50
2018-02-04T21:07:45.424Z,42.00
2018-02-04T21:09:22.211Z,47.75